Flight Track Log - Related Links

Times and Time Zones

All times are in EDT time to prevent confusion due to time zone crossing. See the EJA831 flight status page for this flight to view local times or setup timezone preferences in your user account.

Time Position Orientation Groundspeed Altitude Reporting Facility
EDT Latitude Longitude Course Direction KTS MPH feet Rate Location/Type
Wed 12:53:36 PM 40.8500 -74.3667 21° North 206 237 3,700  Level New York TRACON
Wed 12:54:36 PM 40.9167 -74.3333 21° North 266 306 8,500 3,750 Climbing New York TRACON
Wed 12:55:36 PM 40.9333 -74.4333 282° West 314 361 11,200 2,700 Climbing New York TRACON
Wed 12:56:36 PM 40.9000 -74.5500 249° West 330 380 13,900 1,333 Climbing New York TRACON
Wed 12:57:42 PM 40.8619 -74.6644 246° West 348 400 14,000 339 Climbing New York Center
Wed 12:58:40 PM 40.8100 -74.7875 241° Southwest 358 412 14,600 966 Climbing New York Center
Wed 12:59:40 PM 40.7603 -74.9025 240° Southwest 358 412 15,900 1,190 Climbing New York Center
Wed 01:00:41 PM 40.7103 -75.0144 240° Southwest 358 412 17,000 1,041 Climbing New York Center
Wed 01:01:41 PM 40.6583 -75.1289 239° Southwest 363 418 18,000 1,289 Climbing New York Center
Wed 01:02:42 PM 40.6083 -75.2406 239° Southwest 363 418 19,600 1,008 Climbing New York Center
Wed 01:03:40 PM 40.5558 -75.3572 239° Southwest 363 418 20,000 202 Climbing New York Center
Wed 01:04:41 PM 40.4986 -75.4844 239° Southwest 388 447 20,000  Level New York Center
Wed 01:05:41 PM 40.4394 -75.6114 239° Southwest 401 461 20,000  Level New York Center
Wed 01:06:42 PM 40.3819 -75.7381 239° Southwest 406 467 20,000  Level New York Center
Wed 01:07:40 PM 40.3247 -75.8592 238° Southwest 412 474 20,000  Level New York Center
Wed 01:08:40 PM 40.2675 -75.9747 237° Southwest 412 474 20,000  Level New York Center
Wed 01:09:41 PM 40.2097 -76.1008 239° Southwest 412 474 20,000 -50 Level New York Center
Wed 01:10:40 PM 40.1472 -76.2372 239° Southwest 404 465 19,900 -655 Descending New York Center
Wed 01:11:40 PM 40.0944 -76.3444 237° Southwest 404 465 18,700 -1,091 Descending New York Center
Wed 01:12:41 PM 40.0386 -76.4647 239° Southwest 391 450 17,700 -1,230 Descending New York Center
Wed 01:13:42 PM 39.9872 -76.5797 240° Southwest 386 444 16,200 -853 Descending New York Center
Wed 01:15:51 PM 39.8667 -76.8333 238° Southwest 365 420 15,000 -381 Descending Potomac TRACON
Wed 01:16:51 PM 39.8167 -76.9500 241° Southwest 364 419 15,000  Level Potomac TRACON
Wed 01:17:52 PM 39.7667 -77.0667 241° Southwest 364 419 15,000  Level Potomac TRACON
Wed 01:18:52 PM 39.7167 -77.1667 237° Southwest 367 422 15,000 -1,050 Level Potomac TRACON
Wed 01:19:52 PM 39.6500 -77.2833 233° Southwest 352 405 12,900 -2,139 Descending Potomac TRACON
Wed 01:20:47 PM 39.6167 -77.3667 243° Southwest 346 398 10,900 -2,033 Descending Potomac TRACON
Wed 01:21:53 PM 39.5500 -77.4500 224° Southwest 310 357 8,800 -1,450 Descending Potomac TRACON
Wed 01:22:47 PM 39.5000 -77.5000 218° Southwest 278 320 8,000 -421 Descending Potomac TRACON
Wed 01:23:47 PM 39.4167 -77.5667 212° Southwest 289 333 8,000 -100 Level Potomac TRACON
Wed 01:24:47 PM 39.3500 -77.6167 210° Southwest 280 322 7,800 -500 Descending Potomac TRACON
Wed 01:25:47 PM 39.2833 -77.6500 201° Southwest 269 310 7,000 -400 Descending Potomac TRACON
Wed 01:26:47 PM 39.2000 -77.6667 189° South 270 311 7,000 -200 Level Potomac TRACON
Wed 01:27:47 PM 39.1333 -77.6667 180° South 264 304 6,600 -500 Descending Potomac TRACON
Wed 01:28:47 PM 39.0667 -77.6833 191° South 263 303 6,000 -850 Descending Potomac TRACON
Wed 01:29:47 PM 38.9833 -77.7000 189° South 267 307 4,900 -1,043 Descending Potomac TRACON
Wed 01:30:42 PM 38.9167 -77.7000 180° South 255 293 4,000 -446 Descending Potomac TRACON
Wed 01:31:48 PM 38.8500 -77.7167 191° South 250 288 4,000  Level Potomac TRACON
Wed 01:32:48 PM 38.7667 -77.7167 180° South 262 302 4,000  Level Potomac TRACON
Wed 01:33:48 PM 38.7000 -77.7333 191° South 265 305 4,000  Level Potomac TRACON
Wed 01:34:49 PM 38.6333 -77.7167 169° South 261 300 4,000  Level Potomac TRACON
Wed 01:35:49 PM 38.5500 -77.7000 171° South 249 287 4,000  Level Potomac TRACON
Wed 01:36:49 PM 38.5000 -77.6500 142° Southeast 241 277 4,000 -189 Level Potomac TRACON
Wed 01:37:56 PM 38.4500 -77.6000 142° Southeast 209 241 3,600 -793 Descending Potomac TRACON
Wed 01:38:50 PM 38.4500 -77.5333 90° East 195 224 2,400 -1,300 Descending Potomac TRACON
Wed 01:39:56 PM 38.4333 -77.4833 113° Southeast 138 159 1,000 -793 Descending Potomac TRACON
Wed 01:40:51 PM 38.4000 -77.4667 159° South 130 150 800 -218 Descending Potomac TRACON

Login

Don't have an account? Register now (free) for customized features, flight alerts, and more!